Hyperion — V7K06 — position and weather

sailwx.info

Track history (hours):
 
Tides and Currents Weather Stations Pressure Air Temp Water Temp Dewpoint Dewpoint Depression Visibility Wind Speed Wind Dir Waves Ship Positions

Hyperion

Last reported at 2015-Jun-27 09:32 UTC. Time now 2015-Jun-30 08:18 UTC.
Position N 42°30' E 018°17'.

Length 48 m; draft 4.8 m.

Type: Sailing vessel. MMSI: 538080020.

Date/timePositionNaut miles runAvg speedWind from/ knotsBaromVisibWave heightAir tempDewpointWater temp
2015-Jun-27 09:32N 42°30' E 018°17'1010.2
2015-Jun-27 08:33N 42°24' E 018°27'6 6.5
2015-Jun-27 07:33N 42°26' E 018°36'4 4.2
2015-Jun-27 06:33N 42°26' E 018°41'3 2.8
2015-Jun-27 05:33N 42°29' E 018°42'3 2.8
2015-Jun-27 04:32N 42°29' E 018°46'0 0.0
2015-Jun-27 03:32N 42°29' E 018°45'0 0.0
2015-Jun-27 02:32N 42°29' E 018°46'0 0.0
2015-Jun-27 01:32N 42°29' E 018°45'0 0.0
2015-Jun-27 00:32N 42°29' E 018°45'0 0.0
2015-Jun-26 23:32N 42°29' E 018°45'0 0.0
2015-Jun-26 22:32N 42°29' E 018°46'0 0.0
2015-Jun-26 21:29N 42°29' E 018°46'0 0.0
2015-Jun-26 20:32N 42°29' E 018°46'0 0.0
2015-Jun-26 19:32N 42°29' E 018°46'0 0.0
2015-Jun-26 18:32N 42°29' E 018°45'0 0.0
2015-Jun-26 17:29N 42°29' E 018°46'0 0.0
2015-Jun-26 16:32N 42°29' E 018°46'0 0.0
2015-Jun-26 15:32N 42°29' E 018°45'0 0.0
2015-Jun-26 14:32N 42°29' E 018°45'0 0.0
2015-Jun-26 13:33N 42°29' E 018°45'2 2.2
2015-Jun-26 12:33N 42°26' E 018°46'4 3.7
2015-Jun-26 11:33N 42°26' E 018°40'1 0.8
2015-Jun-26 10:33N 42°26' E 018°41'0 0.0
2015-Jun-26 09:33N 42°26' E 018°41'0 0.0
2015-Jun-26 08:33N 42°26' E 018°41'0 0.0
2015-Jun-26 07:33N 42°26' E 018°41'0 0.0
2015-Jun-26 06:33N 42°26' E 018°41'0 0.0
2015-Jun-26 05:27N 42°26' E 018°41'0 0.0
2015-Jun-25 20:15N 42°26' E 018°41'0 0.0
2015-Jun-25 19:33N 42°26' E 018°41'0 0.0
2015-Jun-25 18:33N 42°26' E 018°41'0 0.0
2015-Jun-25 17:33N 42°26' E 018°41'0 0.0
2015-Jun-25 16:33N 42°26' E 018°41'0 0.0
2015-Jun-25 15:33N 42°26' E 018°41'0 0.0
2015-Jun-25 14:33N 42°26' E 018°41'0 0.0
2015-Jun-25 13:33N 42°26' E 018°41'0 0.0
2015-Jun-25 12:33N 42°26' E 018°41'0 0.0
2015-Jun-25 11:33N 42°26' E 018°41'0 0.0
2015-Jun-25 10:33N 42°26' E 018°41'0 0.0
2015-Jun-25 09:33N 42°26' E 018°41'0 0.0
2015-Jun-25 08:15N 42°26' E 018°41'0 0.0
2015-Jun-25 07:33N 42°26' E 018°41'0 0.0
2015-Jun-25 06:33N 42°26' E 018°41'0 0.0
2015-Jun-25 05:33N 42°26' E 018°41'0 0.0
2015-Jun-25 04:33N 42°26' E 018°41'0 0.0
2015-Jun-25 03:33N 42°26' E 018°41'0 0.0
2015-Jun-25 02:33N 42°26' E 018°41'0 0.0
2015-Jun-25 01:33N 42°26' E 018°41'0 0.0
2015-Jun-25 00:33N 42°26' E 018°41'0 0.0
2015-Jun-24 23:33N 42°26' E 018°41'0 0.0
2015-Jun-24 22:33N 42°26' E 018°41'0 0.0
2015-Jun-24 21:33N 42°26' E 018°41'0 0.0
2015-Jun-24 20:33N 42°26' E 018°41'0 0.0
2015-Jun-24 19:33N 42°26' E 018°41'0 0.0
2015-Jun-24 18:33N 42°26' E 018°41'0 0.0
2015-Jun-24 17:33N 42°26' E 018°41'0 0.0
2015-Jun-24 16:33N 42°26' E 018°41'0 0.0
2015-Jun-24 15:33N 42°26' E 018°41'0 0.0
2015-Jun-24 14:33N 42°26' E 018°41'0 0.0
2015-Jun-24 13:33N 42°26' E 018°41'0 0.0
2015-Jun-24 12:33N 42°26' E 018°41'0 0.0
2015-Jun-24 11:33N 42°26' E 018°41'0 0.0
2015-Jun-24 10:33N 42°26' E 018°41'0 0.0
2015-Jun-24 09:33N 42°26' E 018°41'0 0.0
2015-Jun-24 07:09N 42°26' E 018°41'0 0.0
2015-Jun-24 06:33N 42°26' E 018°41'0 0.0
2015-Jun-24 05:33N 42°26' E 018°41'0 0.0
2015-Jun-24 04:33N 42°26' E 018°41'0 0.0
2015-Jun-24 03:33N 42°26' E 018°41'0 0.0
2015-Jun-24 02:33N 42°26' E 018°41'0 0.0
2015-Jun-24 01:33N 42°26' E 018°41'0 0.0
2015-Jun-24 00:33N 42°26' E 018°41'0 0.0
2015-Jun-23 23:33N 42°26' E 018°41'0 0.0
2015-Jun-23 22:33N 42°26' E 018°41'0 0.0
2015-Jun-23 21:33N 42°26' E 018°41'0 0.0
2015-Jun-23 20:33N 42°26' E 018°41'0 0.0
2015-Jun-23 19:30N 42°26' E 018°41'0 0.0
2015-Jun-23 19:03N 42°26' E 018°41'0 0.0
2015-Jun-22 19:33N 42°26' E 018°41'0 0.0
2015-Jun-22 18:33N 42°26' E 018°41'0 0.0
2015-Jun-22 17:33N 42°26' E 018°41'0 0.0
2015-Jun-22 16:33N 42°26' E 018°41'0 0.0
2015-Jun-22 15:33N 42°26' E 018°41'0 0.0
2015-Jun-22 14:33N 42°26' E 018°41'0 0.0
2015-Jun-22 13:33N 42°26' E 018°41'0 0.0
2015-Jun-22 12:30N 42°26' E 018°41'0 0.0
2015-Jun-22 11:33N 42°26' E 018°41'0 0.0
2015-Jun-22 10:33N 42°26' E 018°41'0 0.0
2015-Jun-22 09:33N 42°26' E 018°41'0 0.0
2015-Jun-22 08:33N 42°26' E 018°41'0 0.0
2015-Jun-22 07:33N 42°26' E 018°41'0 0.0
2015-Jun-22 06:33N 42°26' E 018°41'0 0.0
2015-Jun-22 05:33N 42°26' E 018°41'0 0.0
2015-Jun-22 04:33N 42°26' E 018°41'0 0.0
2015-Jun-22 03:33N 42°26' E 018°41'0 0.0
2015-Jun-22 02:33N 42°26' E 018°41'0 0.0
2015-Jun-22 01:33N 42°26' E 018°41'0 0.0
2015-Jun-22 00:33N 42°26' E 018°41'0 0.0
2015-Jun-21 23:33N 42°26' E 018°41'0 0.0
2015-Jun-21 22:33N 42°26' E 018°41'0 0.0
2015-Jun-21 21:33N 42°26' E 018°41'0 0.0
2015-Jun-21 20:33N 42°26' E 018°41'0 0.0
2015-Jun-21 19:33N 42°26' E 018°41'0 0.0
2015-Jun-21 18:33N 42°26' E 018°41'0 0.0
2015-Jun-21 17:33N 42°26' E 018°41'0 0.0
2015-Jun-21 16:33N 42°26' E 018°41'0 0.0
2015-Jun-21 15:33N 42°26' E 018°41'0 0.0
2015-Jun-21 14:33N 42°26' E 018°41'0 0.0
2015-Jun-21 13:33N 42°26' E 018°41'0 0.0
2015-Jun-21 12:33N 42°26' E 018°41'0 0.0
2015-Jun-21 11:33N 42°26' E 018°41'0 0.0
2015-Jun-21 10:33N 42°26' E 018°41'0 0.0
2015-Jun-21 09:33N 42°26' E 018°41'0 0.0
2015-Jun-21 08:33N 42°26' E 018°41'0 0.0
2015-Jun-21 07:33N 42°26' E 018°41'0 0.0
2015-Jun-21 06:33N 42°26' E 018°41'0 0.0
2015-Jun-21 05:33N 42°26' E 018°41'0 0.0
2015-Jun-21 04:33N 42°26' E 018°41'0 0.0
2015-Jun-21 03:33N 42°26' E 018°41'0 0.0
2015-Jun-21 02:33N 42°26' E 018°41'0 0.0
2015-Jun-21 01:33N 42°26' E 018°41'0 0.0
2015-Jun-21 00:33N 42°26' E 018°41'0 0.0
2015-Jun-20 23:33N 42°26' E 018°41'0 0.0
2015-Jun-20 22:33N 42°26' E 018°41'0 0.0
2015-Jun-20 21:33N 42°26' E 018°41'0 0.0
2015-Jun-20 20:33N 42°26' E 018°41'0 0.0
2015-Jun-20 19:33N 42°26' E 018°41'0 0.0
2015-Jun-20 18:33N 42°26' E 018°41'0 0.0
2015-Jun-20 17:33N 42°26' E 018°41'0 0.0
2015-Jun-20 16:33N 42°26' E 018°41'0 0.0
2015-Jun-20 15:33N 42°26' E 018°41'0 0.0
2015-Jun-20 14:33N 42°26' E 018°41'0 0.0
2015-Jun-20 13:33N 42°26' E 018°41'0 0.0
2015-Jun-20 12:33N 42°26' E 018°41'0 0.0
2015-Jun-20 11:33N 42°26' E 018°41'0 0.0
2015-Jun-20 10:33N 42°26' E 018°41'0 0.0
2015-Jun-20 09:33N 42°26' E 018°41'0 0.0
2015-Jun-20 08:33N 42°26' E 018°41'0 0.0
2015-Jun-20 07:33N 42°26' E 018°41'0 0.0
2015-Jun-20 06:33N 42°26' E 018°41'0 0.0
2015-Jun-20 05:33N 42°26' E 018°41'0 0.0
2015-Jun-20 04:33N 42°26' E 018°41'0 0.0
2015-Jun-20 03:33N 42°26' E 018°41'0 0.0
2015-Jun-20 02:33N 42°26' E 018°41'0 0.0
2015-Jun-20 01:33N 42°26' E 018°41'0 0.0
2015-Jun-20 00:33N 42°26' E 018°41'0 0.0
2015-Jun-19 23:33N 42°26' E 018°41'0 0.0
2015-Jun-19 22:33N 42°26' E 018°41'0 0.0
2015-Jun-19 21:33N 42°26' E 018°41'0 0.0
2015-Jun-19 20:33N 42°26' E 018°41'0 0.0
2015-Jun-19 19:33N 42°26' E 018°41'0 0.0
2015-Jun-19 18:33N 42°26' E 018°41'0 0.0
2015-Jun-19 17:33N 42°26' E 018°41'0 0.0
2015-Jun-19 16:33N 42°26' E 018°41'0 0.0
2015-Jun-19 15:33N 42°26' E 018°41'0 0.0
2015-Jun-19 14:33N 42°26' E 018°41'0 0.0
2015-Jun-19 13:33N 42°26' E 018°41'0 0.0
2015-Jun-19 12:33N 42°26' E 018°41'0 0.0
2015-Jun-19 11:33N 42°26' E 018°41'0 0.0
2015-Jun-19 10:33N 42°26' E 018°41'0 0.0
2015-Jun-19 09:33N 42°26' E 018°41'0 0.0
2015-Jun-19 08:33N 42°26' E 018°41'0 0.0
2015-Jun-19 07:33N 42°26' E 018°41'0 0.0
2015-Jun-19 06:33N 42°26' E 018°41'0 0.0
2015-Jun-19 05:33N 42°26' E 018°41'0 0.0
2015-Jun-19 04:33N 42°26' E 018°41'0 0.0
2015-Jun-19 03:33N 42°26' E 018°41'0 0.0
2015-Jun-19 02:30N 42°26' E 018°41'0 0.0
2015-Jun-19 01:33N 42°26' E 018°41'0 0.0
2015-Jun-19 00:33N 42°26' E 018°41'0 0.0
2015-Jun-18 23:33N 42°26' E 018°41'0 0.0
2015-Jun-18 22:33N 42°26' E 018°41'0 0.0
2015-Jun-18 21:30N 42°26' E 018°41'0 0.0
2015-Jun-18 20:33N 42°26' E 018°41'0 0.0
2015-Jun-18 19:33N 42°26' E 018°41'0 0.0
2015-Jun-18 18:33N 42°26' E 018°41'0 0.0
2015-Jun-18 17:33N 42°26' E 018°41'0 0.0
2015-Jun-18 16:33N 42°26' E 018°41'0 0.0
2015-Jun-18 15:33N 42°26' E 018°41'0 0.0
2015-Jun-18 14:30N 42°26' E 018°41'0 0.0
2015-Jun-18 12:18N 42°26' E 018°41'0 0.0
2015-Jun-18 11:33N 42°26' E 018°41'0 0.0
2015-Jun-18 10:33N 42°26' E 018°41'0 0.0
2015-Jun-18 09:33N 42°26' E 018°41'0 0.0
2015-Jun-18 08:33N 42°26' E 018°41'1 1.1
2015-Jun-18 07:33N 42°25' E 018°42'1 1.0
2015-Jun-18 06:34N 42°26' E 018°41'0 0.2
2015-Jun-18 05:33N 42°26' E 018°40'6 5.1
2015-Jun-18 04:24N 42°24' E 018°33'7 8.0
2015-Jun-18 03:33N 42°17' E 018°36'6 5.6
2015-Jun-18 02:33N 42°12' E 018°39'7 6.7
2015-Jun-18 01:33N 42°06' E 018°41'7 6.9
2015-Jun-18 00:33N 41°59' E 018°45'  
Track history (hours):
 
Tides and Currents Weather Stations Pressure Air Temp Water Temp Dewpoint Dewpoint Depression Visibility Wind Speed Wind Dir Waves Ship Positions

Hyperion

Last reported at 2015-Jun-27 09:32 UTC. Time now 2015-Jun-30 08:18 UTC.
Position N 42°30' E 018°17'.

Length 48 m; draft 4.8 m.

Type: Sailing vessel. MMSI: 538080020.

Date/timePositionNaut miles runAvg speedWind from/ knotsBaromVisibWave heightAir tempDewpointWater temp
2015-Jun-27 09:32N 42°30' E 018°17'1010.2
2015-Jun-27 08:33N 42°24' E 018°27'6 6.5
2015-Jun-27 07:33N 42°26' E 018°36'4 4.2
2015-Jun-27 06:33N 42°26' E 018°41'3 2.8
2015-Jun-27 05:33N 42°29' E 018°42'3 2.8
2015-Jun-27 04:32N 42°29' E 018°46'0 0.0
2015-Jun-27 03:32N 42°29' E 018°45'0 0.0
2015-Jun-27 02:32N 42°29' E 018°46'0 0.0
2015-Jun-27 01:32N 42°29' E 018°45'0 0.0
2015-Jun-27 00:32N 42°29' E 018°45'0 0.0
2015-Jun-26 23:32N 42°29' E 018°45'0 0.0
2015-Jun-26 22:32N 42°29' E 018°46'0 0.0
2015-Jun-26 21:29N 42°29' E 018°46'0 0.0
2015-Jun-26 20:32N 42°29' E 018°46'0 0.0
2015-Jun-26 19:32N 42°29' E 018°46'0 0.0
2015-Jun-26 18:32N 42°29' E 018°45'0 0.0
2015-Jun-26 17:29N 42°29' E 018°46'0 0.0
2015-Jun-26 16:32N 42°29' E 018°46'0 0.0
2015-Jun-26 15:32N 42°29' E 018°45'0 0.0
2015-Jun-26 14:32N 42°29' E 018°45'0 0.0
2015-Jun-26 13:33N 42°29' E 018°45'2 2.2
2015-Jun-26 12:33N 42°26' E 018°46'4 3.7
2015-Jun-26 11:33N 42°26' E 018°40'1 0.8
2015-Jun-26 10:33N 42°26' E 018°41'0 0.0
2015-Jun-26 09:33N 42°26' E 018°41'0 0.0
2015-Jun-26 08:33N 42°26' E 018°41'0 0.0
2015-Jun-26 07:33N 42°26' E 018°41'0 0.0
2015-Jun-26 06:33N 42°26' E 018°41'0 0.0
2015-Jun-26 05:27N 42°26' E 018°41'0 0.0
2015-Jun-25 20:15N 42°26' E 018°41'0 0.0
2015-Jun-25 19:33N 42°26' E 018°41'0 0.0
2015-Jun-25 18:33N 42°26' E 018°41'0 0.0
2015-Jun-25 17:33N 42°26' E 018°41'0 0.0
2015-Jun-25 16:33N 42°26' E 018°41'0 0.0
2015-Jun-25 15:33N 42°26' E 018°41'0 0.0
2015-Jun-25 14:33N 42°26' E 018°41'0 0.0
2015-Jun-25 13:33N 42°26' E 018°41'0 0.0
2015-Jun-25 12:33N 42°26' E 018°41'0 0.0
2015-Jun-25 11:33N 42°26' E 018°41'0 0.0
2015-Jun-25 10:33N 42°26' E 018°41'0 0.0
2015-Jun-25 09:33N 42°26' E 018°41'0 0.0
2015-Jun-25 08:15N 42°26' E 018°41'0 0.0
2015-Jun-25 07:33N 42°26' E 018°41'0 0.0
2015-Jun-25 06:33N 42°26' E 018°41'0 0.0
2015-Jun-25 05:33N 42°26' E 018°41'0 0.0
2015-Jun-25 04:33N 42°26' E 018°41'0 0.0
2015-Jun-25 03:33N 42°26' E 018°41'0 0.0
2015-Jun-25 02:33N 42°26' E 018°41'0 0.0
2015-Jun-25 01:33N 42°26' E 018°41'0 0.0
2015-Jun-25 00:33N 42°26' E 018°41'0 0.0
2015-Jun-24 23:33N 42°26' E 018°41'0 0.0
2015-Jun-24 22:33N 42°26' E 018°41'0 0.0
2015-Jun-24 21:33N 42°26' E 018°41'0 0.0
2015-Jun-24 20:33N 42°26' E 018°41'0 0.0
2015-Jun-24 19:33N 42°26' E 018°41'0 0.0
2015-Jun-24 18:33N 42°26' E 018°41'0 0.0
2015-Jun-24 17:33N 42°26' E 018°41'0 0.0
2015-Jun-24 16:33N 42°26' E 018°41'0 0.0
2015-Jun-24 15:33N 42°26' E 018°41'0 0.0
2015-Jun-24 14:33N 42°26' E 018°41'0 0.0
2015-Jun-24 13:33N 42°26' E 018°41'0 0.0
2015-Jun-24 12:33N 42°26' E 018°41'0 0.0
2015-Jun-24 11:33N 42°26' E 018°41'0 0.0
2015-Jun-24 10:33N 42°26' E 018°41'0 0.0
2015-Jun-24 09:33N 42°26' E 018°41'0 0.0
2015-Jun-24 07:09N 42°26' E 018°41'0 0.0
2015-Jun-24 06:33N 42°26' E 018°41'0 0.0
2015-Jun-24 05:33N 42°26' E 018°41'0 0.0
2015-Jun-24 04:33N 42°26' E 018°41'0 0.0
2015-Jun-24 03:33N 42°26' E 018°41'0 0.0
2015-Jun-24 02:33N 42°26' E 018°41'0 0.0
2015-Jun-24 01:33N 42°26' E 018°41'0 0.0
2015-Jun-24 00:33N 42°26' E 018°41'0 0.0
2015-Jun-23 23:33N 42°26' E 018°41'0 0.0
2015-Jun-23 22:33N 42°26' E 018°41'0 0.0
2015-Jun-23 21:33N 42°26' E 018°41'0 0.0
2015-Jun-23 20:33N 42°26' E 018°41'0 0.0
2015-Jun-23 19:30N 42°26' E 018°41'0 0.0
2015-Jun-23 19:03N 42°26' E 018°41'0 0.0
2015-Jun-22 19:33N 42°26' E 018°41'0 0.0
2015-Jun-22 18:33N 42°26' E 018°41'0 0.0
2015-Jun-22 17:33N 42°26' E 018°41'0 0.0
2015-Jun-22 16:33N 42°26' E 018°41'0 0.0
2015-Jun-22 15:33N 42°26' E 018°41'0 0.0
2015-Jun-22 14:33N 42°26' E 018°41'0 0.0
2015-Jun-22 13:33N 42°26' E 018°41'0 0.0
2015-Jun-22 12:30N 42°26' E 018°41'0 0.0
2015-Jun-22 11:33N 42°26' E 018°41'0 0.0
2015-Jun-22 10:33N 42°26' E 018°41'0 0.0
2015-Jun-22 09:33N 42°26' E 018°41'0 0.0
2015-Jun-22 08:33N 42°26' E 018°41'0 0.0
2015-Jun-22 07:33N 42°26' E 018°41'0 0.0
2015-Jun-22 06:33N 42°26' E 018°41'0 0.0
2015-Jun-22 05:33N 42°26' E 018°41'0 0.0
2015-Jun-22 04:33N 42°26' E 018°41'0 0.0
2015-Jun-22 03:33N 42°26' E 018°41'0 0.0
2015-Jun-22 02:33N 42°26' E 018°41'0 0.0
2015-Jun-22 01:33N 42°26' E 018°41'0 0.0
2015-Jun-22 00:33N 42°26' E 018°41'0 0.0
2015-Jun-21 23:33N 42°26' E 018°41'0 0.0
2015-Jun-21 22:33N 42°26' E 018°41'0 0.0
2015-Jun-21 21:33N 42°26' E 018°41'0 0.0
2015-Jun-21 20:33N 42°26' E 018°41'0 0.0
2015-Jun-21 19:33N 42°26' E 018°41'0 0.0
2015-Jun-21 18:33N 42°26' E 018°41'0 0.0
2015-Jun-21 17:33N 42°26' E 018°41'0 0.0
2015-Jun-21 16:33N 42°26' E 018°41'0 0.0
2015-Jun-21 15:33N 42°26' E 018°41'0 0.0
2015-Jun-21 14:33N 42°26' E 018°41'0 0.0
2015-Jun-21 13:33N 42°26' E 018°41'0 0.0
2015-Jun-21 12:33N 42°26' E 018°41'0 0.0
2015-Jun-21 11:33N 42°26' E 018°41'0 0.0
2015-Jun-21 10:33N 42°26' E 018°41'0 0.0
2015-Jun-21 09:33N 42°26' E 018°41'0 0.0
2015-Jun-21 08:33N 42°26' E 018°41'0 0.0
2015-Jun-21 07:33N 42°26' E 018°41'0 0.0
2015-Jun-21 06:33N 42°26' E 018°41'0 0.0
2015-Jun-21 05:33N 42°26' E 018°41'0 0.0
2015-Jun-21 04:33N 42°26' E 018°41'0 0.0
2015-Jun-21 03:33N 42°26' E 018°41'0 0.0
2015-Jun-21 02:33N 42°26' E 018°41'0 0.0
2015-Jun-21 01:33N 42°26' E 018°41'0 0.0
2015-Jun-21 00:33N 42°26' E 018°41'0 0.0
2015-Jun-20 23:33N 42°26' E 018°41'0 0.0
2015-Jun-20 22:33N 42°26' E 018°41'0 0.0
2015-Jun-20 21:33N 42°26' E 018°41'0 0.0
2015-Jun-20 20:33N 42°26' E 018°41'0 0.0
2015-Jun-20 19:33N 42°26' E 018°41'0 0.0
2015-Jun-20 18:33N 42°26' E 018°41'0 0.0
2015-Jun-20 17:33N 42°26' E 018°41'0 0.0
2015-Jun-20 16:33N 42°26' E 018°41'0 0.0
2015-Jun-20 15:33N 42°26' E 018°41'0 0.0
2015-Jun-20 14:33N 42°26' E 018°41'0 0.0
2015-Jun-20 13:33N 42°26' E 018°41'0 0.0
2015-Jun-20 12:33N 42°26' E 018°41'0 0.0
2015-Jun-20 11:33N 42°26' E 018°41'0 0.0
2015-Jun-20 10:33N 42°26' E 018°41'0 0.0
2015-Jun-20 09:33N 42°26' E 018°41'0 0.0
2015-Jun-20 08:33N 42°26' E 018°41'0 0.0
2015-Jun-20 07:33N 42°26' E 018°41'0 0.0
2015-Jun-20 06:33N 42°26' E 018°41'0 0.0
2015-Jun-20 05:33N 42°26' E 018°41'0 0.0
2015-Jun-20 04:33N 42°26' E 018°41'0 0.0
2015-Jun-20 03:33N 42°26' E 018°41'0 0.0
2015-Jun-20 02:33N 42°26' E 018°41'0 0.0
2015-Jun-20 01:33N 42°26' E 018°41'0 0.0
2015-Jun-20 00:33N 42°26' E 018°41'0 0.0
2015-Jun-19 23:33N 42°26' E 018°41'0 0.0
2015-Jun-19 22:33N 42°26' E 018°41'0 0.0
2015-Jun-19 21:33N 42°26' E 018°41'0 0.0
2015-Jun-19 20:33N 42°26' E 018°41'0 0.0
2015-Jun-19 19:33N 42°26' E 018°41'0 0.0
2015-Jun-19 18:33N 42°26' E 018°41'0 0.0
2015-Jun-19 17:33N 42°26' E 018°41'0 0.0
2015-Jun-19 16:33N 42°26' E 018°41'0 0.0
2015-Jun-19 15:33N 42°26' E 018°41'0 0.0
2015-Jun-19 14:33N 42°26' E 018°41'0 0.0
2015-Jun-19 13:33N 42°26' E 018°41'0 0.0
2015-Jun-19 12:33N 42°26' E 018°41'0 0.0
2015-Jun-19 11:33N 42°26' E 018°41'0 0.0
2015-Jun-19 10:33N 42°26' E 018°41'0 0.0
2015-Jun-19 09:33N 42°26' E 018°41'0 0.0
2015-Jun-19 08:33N 42°26' E 018°41'0 0.0
2015-Jun-19 07:33N 42°26' E 018°41'0 0.0
2015-Jun-19 06:33N 42°26' E 018°41'0 0.0
2015-Jun-19 05:33N 42°26' E 018°41'0 0.0
2015-Jun-19 04:33N 42°26' E 018°41'0 0.0
2015-Jun-19 03:33N 42°26' E 018°41'0 0.0
2015-Jun-19 02:30N 42°26' E 018°41'0 0.0
2015-Jun-19 01:33N 42°26' E 018°41'0 0.0
2015-Jun-19 00:33N 42°26' E 018°41'0 0.0
2015-Jun-18 23:33N 42°26' E 018°41'0 0.0
2015-Jun-18 22:33N 42°26' E 018°41'0 0.0
2015-Jun-18 21:30N 42°26' E 018°41'0 0.0
2015-Jun-18 20:33N 42°26' E 018°41'0 0.0
2015-Jun-18 19:33N 42°26' E 018°41'0 0.0
2015-Jun-18 18:33N 42°26' E 018°41'0 0.0
2015-Jun-18 17:33N 42°26' E 018°41'0 0.0
2015-Jun-18 16:33N 42°26' E 018°41'0 0.0
2015-Jun-18 15:33N 42°26' E 018°41'0 0.0
2015-Jun-18 14:30N 42°26' E 018°41'0 0.0
2015-Jun-18 12:18N 42°26' E 018°41'0 0.0
2015-Jun-18 11:33N 42°26' E 018°41'0 0.0
2015-Jun-18 10:33N 42°26' E 018°41'0 0.0
2015-Jun-18 09:33N 42°26' E 018°41'0 0.0
2015-Jun-18 08:33N 42°26' E 018°41'1 1.1
2015-Jun-18 07:33N 42°25' E 018°42'1 1.0
2015-Jun-18 06:34N 42°26' E 018°41'0 0.2
2015-Jun-18 05:33N 42°26' E 018°40'6 5.1
2015-Jun-18 04:24N 42°24' E 018°33'7 8.0
2015-Jun-18 03:33N 42°17' E 018°36'6 5.6
2015-Jun-18 02:33N 42°12' E 018°39'7 6.7
2015-Jun-18 01:33N 42°06' E 018°41'7 6.9
2015-Jun-18 00:33N 41°59' E 018°45'  

Dump ship's entire track history